Time;durP1;ratioP1;P1;durP2;ratioP2;P2;SDS_P1;SDS_P2;PMS_P1;PMS_P2;Temp;Humidity;BMP_temperature;BMP_pressure;BME280_temperature;BME280_humidity;BME280_pressure;Samples;Min_cycle;Max_cycle;Signal;HPM_P1;HPM_P2
2022/06/02 00:01:10;;;;;;;2.30;1.43;;;16.20;98.00;;;;;;5013318;28;20452;-67
2022/06/02 00:03:47;;;;;;;2.53;1.70;;;15.90;98.00;;;;;;5013369;28;20460;-66
2022/06/02 00:06:21;;;;;;;2.03;1.50;;;15.80;98.00;;;;;;5013441;28;20459;-67
2022/06/02 00:09:01;;;;;;;2.37;1.87;;;15.70;98.00;;;;;;5012028;28;20929;-66
2022/06/02 00:11:53;;;;;;;1.80;1.60;;;15.70;98.00;;;;;;5012198;28;20463;-67
2022/06/02 00:14:29;;;;;;;1.70;1.30;;;15.60;98.00;;;;;;5012013;28;20563;-67
2022/06/02 00:17:02;;;;;;;1.30;1.30;;;15.70;98.00;;;;;;5012899;28;20812;-66
2022/06/02 00:19:39;;;;;;;2.20;1.60;;;15.60;98.00;;;;;;5011141;28;20458;-67
2022/06/02 00:22:16;;;;;;;2.07;1.50;;;15.60;98.00;;;;;;5012750;28;20466;-67
2022/06/02 00:24:49;;;;;;;1.63;1.30;;;15.60;98.00;;;;;;5011799;28;20452;-67
2022/06/02 00:27:26;;;;;;;1.93;1.90;;;15.50;98.00;;;;;;5012808;28;20965;-66
2022/06/02 00:30:04;;;;;;;3.40;1.90;;;15.50;98.00;;;;;;5012234;28;20849;-66
2022/06/02 00:32:40;;;;;;;1.77;1.40;;;15.40;98.00;;;;;;5012740;28;20459;-67
2022/06/02 00:35:22;;;;;;;2.07;1.67;;;15.30;98.00;;;;;;5012549;28;20463;-66
2022/06/02 00:37:53;;;;;;;1.43;1.37;;;15.30;98.00;;;;;;5012547;28;20845;-67
2022/06/02 00:40:22;;;;;;;1.50;1.23;;;15.30;98.00;;;;;;5012577;28;20471;-67
2022/06/02 00:42:57;;;;;;;1.93;1.57;;;15.30;98.00;;;;;;5011137;28;20803;-67
2022/06/02 00:45:25;;;;;;;2.33;1.40;;;15.20;98.00;;;;;;5012567;28;20470;-67
2022/06/02 00:48:06;;;;;;;2.33;1.90;;;15.20;98.00;;;;;;5012348;28;20468;-67
2022/06/02 00:50:49;;;;;;;2.47;1.60;;;15.30;98.00;;;;;;5012270;28;21041;-67
2022/06/02 00:53:35;;;;;;;1.27;1.23;;;15.30;98.00;;;;;;5012232;28;20464;-67
2022/06/02 00:59:13;;;;;;;1.50;1.40;;;15.50;98.00;;;;;;5012294;28;20467;-67
2022/06/02 01:01:40;;;;;;;1.60;1.50;;;15.50;98.00;;;;;;5012417;28;20501;-66
2022/06/02 01:04:12;;;;;;;1.90;1.60;;;15.40;98.00;;;;;;5011049;28;20462;-66
2022/06/02 01:07:04;;;;;;;1.90;1.50;;;15.30;98.00;;;;;;5012289;28;20452;-67
2022/06/02 01:09:49;;;;;;;1.77;1.40;;;15.20;98.00;;;;;;5012530;28;20494;-66
2022/06/02 01:12:53;;;;;;;3.60;1.70;;;15.20;98.00;;;;;;5011466;28;20463;-67
2022/06/02 01:15:30;;;;;;;2.00;1.40;;;15.10;98.00;;;;;;4990877;28;20455;-66
2022/06/02 01:18:10;;;;;;;1.70;1.60;;;15.00;98.00;;;;;;5011927;28;20454;-67
2022/06/02 01:20:47;;;;;;;1.60;1.30;;;15.00;98.00;;;;;;5011868;28;20460;-67
2022/06/02 01:23:51;;;;;;;1.70;1.40;;;14.90;98.00;;;;;;5012071;28;20833;-66
2022/06/02 01:26:45;;;;;;;2.40;1.43;;;14.90;98.00;;;;;;5012111;28;20455;-67
2022/06/02 01:29:27;;;;;;;1.83;1.30;;;14.90;98.00;;;;;;5010674;28;20460;-67
2022/06/02 01:32:00;;;;;;;1.60;1.40;;;15.00;98.00;;;;;;5015505;28;20490;-67
2022/06/02 01:34:42;;;;;;;1.40;1.30;;;15.20;98.00;;;;;;5015913;28;20456;-67
2022/06/02 01:37:17;;;;;;;2.03;1.60;;;15.20;98.00;;;;;;5015887;28;20462;-67
2022/06/02 01:40:01;;;;;;;2.03;1.20;;;15.10;98.00;;;;;;5015682;28;20459;-66
2022/06/02 01:42:41;;;;;;;1.30;1.20;;;15.10;98.00;;;;;;5014759;28;20479;-66
2022/06/02 01:45:17;;;;;;;1.63;1.37;;;15.00;98.00;;;;;;5015955;28;20820;-68
2022/06/02 01:47:50;;;;;;;1.20;1.20;;;15.00;98.00;;;;;;5015712;28;20487;-67
2022/06/02 01:50:28;;;;;;;1.53;1.30;;;14.80;98.00;;;;;;5015507;28;20865;-67
2022/06/02 01:53:05;;;;;;;1.70;1.60;;;14.70;98.00;;;;;;5015674;28;20984;-66
2022/06/02 01:56:08;;;;;;;4.03;1.40;;;14.60;98.00;;;;;;5015602;28;20463;-67
2022/06/02 01:58:52;;;;;;;1.93;1.40;;;14.70;98.00;;;;;;5015319;28;20477;-66
2022/06/02 02:01:29;;;;;;;2.73;1.50;;;14.40;98.00;;;;;;4999401;28;20470;-66
2022/06/02 02:04:11;;;;;;;2.03;1.47;;;14.40;98.00;;;;;;5015532;28;20466;-67
2022/06/02 02:06:48;;;;;;;1.60;1.30;;;14.30;98.00;;;;;;5015175;28;20463;-67
2022/06/02 02:09:24;;;;;;;3.80;2.20;;;14.30;98.00;;;;;;5014515;28;20960;-66
2022/06/02 02:11:54;;;;;;;1.93;1.60;;;14.20;98.00;;;;;;5015211;28;20467;-67
2022/06/02 02:14:48;;;;;;;1.50;1.40;;;14.20;98.00;;;;;;5015719;28;20590;-67
2022/06/02 02:17:33;;;;;;;1.40;1.20;;;14.10;98.00;;;;;;5013824;28;20533;-66
2022/06/02 02:20:09;;;;;;;2.17;1.67;;;14.20;98.00;;;;;;5015133;28;20827;-67
2022/06/02 02:22:47;;;;;;;1.30;1.27;;;14.10;98.00;;;;;;5015207;28;20470;-66
2022/06/02 02:25:22;;;;;;;1.50;1.23;;;14.00;98.00;;;;;;5013763;28;20466;-67
2022/06/02 02:28:04;;;;;;;1.70;1.23;;;14.00;98.00;;;;;;5015054;28;20458;-67
2022/06/02 02:30:42;;;;;;;1.40;1.23;;;14.00;98.00;;;;;;5014927;28;20491;-67
2022/06/02 02:33:20;;;;;;;2.37;1.20;;;14.10;98.00;;;;;;5015124;28;20458;-66
2022/06/02 02:35:57;;;;;;;1.20;1.07;;;14.00;98.00;;;;;;5013536;28;20463;-67
2022/06/02 02:38:34;;;;;;;1.20;1.20;;;14.00;98.00;;;;;;5014236;28;20844;-67
2022/06/02 02:41:04;;;;;;;1.30;1.00;;;13.90;98.00;;;;;;5014735;28;20956;-66
2022/06/02 02:43:38;;;;;;;1.30;1.20;;;13.90;98.00;;;;;;5014092;28;20460;-66
2022/06/02 02:46:14;;;;;;;1.40;1.30;;;13.90;98.00;;;;;;5014637;28;20892;-66
2022/06/02 02:48:52;;;;;;;1.83;1.37;;;14.00;98.00;;;;;;5014503;28;20490;-66
2022/06/02 02:51:32;;;;;;;1.63;1.30;;;14.00;98.00;;;;;;5014611;28;20492;-67
2022/06/02 02:54:05;;;;;;;1.50;1.10;;;14.00;98.00;;;;;;5014576;28;20467;-66
2022/06/02 02:56:39;;;;;;;1.50;1.40;;;14.10;98.00;;;;;;5014544;28;20840;-66
2022/06/02 02:59:18;;;;;;;2.03;1.30;;;14.10;98.00;;;;;;5014513;28;20479;-66
2022/06/02 03:01:53;;;;;;;1.67;1.17;;;14.00;98.00;;;;;;5014320;28;20487;-66
2022/06/02 03:04:34;;;;;;;1.97;1.40;;;13.90;98.00;;;;;;5013201;28;20509;-66
2022/06/02 03:07:03;;;;;;;1.53;1.10;;;13.90;98.00;;;;;;5014307;28;20974;-67
2022/06/02 03:09:42;;;;;;;1.40;1.20;;;14.00;98.00;;;;;;5014313;28;20455;-66
2022/06/02 03:12:20;;;;;;;1.30;1.10;;;14.00;98.00;;;;;;5014275;28;20489;-67
2022/06/02 03:15:08;;;;;;;1.60;1.30;;;14.10;98.00;;;;;;5013037;28;20866;-67
2022/06/02 03:17:48;;;;;;;2.27;1.50;;;14.00;98.00;;;;;;5014099;28;20462;-67
2022/06/02 03:20:21;;;;;;;1.90;1.43;;;14.20;98.00;;;;;;5014004;28;20470;-66
2022/06/02 03:23:06;;;;;;;1.73;1.30;;;14.20;98.00;;;;;;5013760;28;20517;-67
2022/06/02 03:25:39;;;;;;;1.20;1.03;;;14.20;98.00;;;;;;5012607;28;20545;-66
2022/06/02 03:28:19;;;;;;;1.90;1.40;;;14.30;98.00;;;;;;5013602;28;20495;-66
2022/06/02 03:30:54;;;;;;;1.83;1.30;;;14.10;98.00;;;;;;5013519;28;20482;-66
2022/06/02 03:33:50;;;;;;;1.50;1.20;;;14.00;98.00;;;;;;5013693;28;20466;-67
2022/06/02 03:36:26;;;;;;;1.20;1.10;;;13.90;98.00;;;;;;5012138;28;20958;-67
2022/06/02 03:39:05;;;;;;;2.17;1.77;;;14.10;98.00;;;;;;5013698;28;20462;-67
2022/06/02 03:41:55;;;;;;;3.10;1.37;;;14.10;98.00;;;;;;5013722;28;20463;-67
2022/06/02 03:44:35;;;;;;;1.33;1.13;;;14.10;98.00;;;;;;5013615;28;20462;-67
2022/06/02 03:47:22;;;;;;;1.30;1.20;;;14.10;98.00;;;;;;5013428;28;20466;-67
2022/06/02 03:50:07;;;;;;;1.20;1.00;;;14.30;98.00;;;;;;5013448;28;20549;-67
2022/06/02 03:52:59;;;;;;;1.20;1.20;;;14.20;98.00;;;;;;5013534;28;20458;-66
2022/06/02 03:55:42;;;;;;;1.30;1.10;;;14.10;98.00;;;;;;5012448;28;20471;-66
2022/06/02 03:58:25;;;;;;;1.63;1.13;;;14.00;98.00;;;;;;5013283;28;20566;-66
2022/06/02 04:00:57;;;;;;;1.30;1.10;;;13.90;98.00;;;;;;5011938;28;20940;-67
2022/06/02 04:03:52;;;;;;;2.80;1.47;;;13.80;98.00;;;;;;5013308;28;20472;-67
2022/06/02 04:06:29;;;;;;;1.57;1.20;;;13.70;98.00;;;;;;5013478;28;20538;-67
2022/06/02 04:09:32;;;;;;;1.30;1.17;;;13.80;98.00;;;;;;5013365;28;20461;-67
2022/06/02 04:15:38;;;;;;;1.30;1.20;;;13.70;98.00;;;;;;5012903;28;20594;-66
2022/06/02 04:18:18;;;;;;;1.20;1.10;;;13.80;98.00;;;;;;5012859;28;20789;-66
2022/06/02 04:20:58;;;;;;;1.30;1.10;;;13.70;98.00;;;;;;5012562;28;20459;-66
2022/06/02 04:23:53;;;;;;;1.73;1.20;;;13.60;98.00;;;;;;5012724;28;20466;-66
2022/06/02 04:26:40;;;;;;;1.20;1.10;;;13.70;98.00;;;;;;5011707;28;20458;-66
2022/06/02 04:29:23;;;;;;;1.20;1.10;;;13.60;98.00;;;;;;5012741;28;20900;-67
2022/06/02 04:31:59;;;;;;;1.80;1.40;;;13.60;98.00;;;;;;5012537;28;20554;-66
2022/06/02 04:34:32;;;;;;;1.70;1.23;;;13.70;98.00;;;;;;5012029;28;20466;-66
2022/06/02 04:37:08;;;;;;;1.43;1.30;;;13.90;98.00;;;;;;5012688;28;20558;-67
2022/06/02 04:39:44;;;;;;;1.30;1.17;;;14.00;98.00;;;;;;5012612;28;20510;-66
2022/06/02 04:42:21;;;;;;;1.50;1.30;;;14.10;98.00;;;;;;5012738;28;20458;-66
2022/06/02 04:45:01;;;;;;;1.50;1.43;;;14.20;98.00;;;;;;5011335;28;20463;-67
2022/06/02 04:47:39;;;;;;;1.40;1.17;;;14.50;98.00;;;;;;5012625;28;20875;-67
2022/06/02 04:50:17;;;;;;;1.30;1.20;;;14.60;98.00;;;;;;5011103;28;20463;-66
2022/06/02 04:52:53;;;;;;;1.40;1.17;;;14.80;98.00;;;;;;5011713;28;20462;-66
2022/06/02 04:55:30;;;;;;;1.77;1.30;;;15.00;98.00;;;;;;5011774;28;20462;-67
2022/06/02 04:58:05;;;;;;;1.90;1.30;;;15.00;98.00;;;;;;5011124;28;20458;-66
2022/06/02 05:00:44;;;;;;;2.33;1.57;;;15.00;98.00;;;;;;5010546;28;20461;-67
2022/06/02 05:03:19;;;;;;;1.70;1.40;;;14.90;98.00;;;;;;5012437;28;20933;-67
2022/06/02 05:05:56;;;;;;;1.70;1.60;;;14.90;98.00;;;;;;5012240;28;20451;-66
2022/06/02 05:08:42;;;;;;;1.80;1.13;;;14.80;98.00;;;;;;5012542;28;20547;-66
2022/06/02 05:11:18;;;;;;;2.67;1.33;;;14.80;98.00;;;;;;5012206;28;20619;-67
2022/06/02 05:13:53;;;;;;;2.47;1.67;;;14.70;98.00;;;;;;5012318;28;20467;-67
2022/06/02 05:16:29;;;;;;;1.60;1.30;;;14.70;98.00;;;;;;5011765;28;20466;-66
2022/06/02 05:19:41;;;;;;;3.53;1.47;;;14.50;98.00;;;;;;5012011;28;20466;-66
2022/06/02 05:22:32;;;;;;;1.60;1.50;;;14.50;98.00;;;;;;4987751;28;20471;-66
2022/06/02 05:25:34;;;;;;;1.40;1.27;;;14.60;98.00;;;;;;5011945;28;20464;-67
2022/06/02 05:28:40;;;;;;;1.50;1.40;;;14.60;98.00;;;;;;5010231;28;20455;-67
2022/06/02 05:31:46;;;;;;;1.70;1.47;;;14.80;98.00;;;;;;5011375;28;20586;-66
2022/06/02 05:34:26;;;;;;;1.50;1.33;;;15.00;98.00;;;;;;5011944;28;20503;-66
2022/06/02 05:37:24;;;;;;;1.50;1.30;;;15.20;98.00;;;;;;5011879;28;20973;-66
2022/06/02 05:40:15;;;;;;;2.30;1.43;;;15.40;98.00;;;;;;5011669;28;20467;-66
2022/06/02 05:42:58;;;;;;;3.03;1.50;;;15.30;98.00;;;;;;5011812;28;20977;-67
2022/06/02 05:45:47;;;;;;;2.80;1.33;;;15.30;98.00;;;;;;5011966;28;20459;-66
2022/06/02 05:48:32;;;;;;;1.60;1.27;;;15.40;98.00;;;;;;5011834;28;20467;-67
2022/06/02 05:51:10;;;;;;;1.83;1.43;;;15.60;98.00;;;;;;5011628;28;20866;-67
2022/06/02 05:53:50;;;;;;;1.93;1.50;;;15.70;98.00;;;;;;5012072;28;20459;-66
2022/06/02 05:56:31;;;;;;;1.47;1.40;;;15.60;98.00;;;;;;5010427;28;20459;-67
2022/06/02 06:00:00;;;;;;;1.40;1.20;;;15.70;97.30;;;;;;5010557;28;20467;-67
2022/06/02 06:03:07;;;;;;;3.70;1.50;;;15.80;98.00;;;;;;5011666;28;20462;-66
2022/06/02 06:05:42;;;;;;;2.23;1.40;;;15.80;97.40;;;;;;5010491;28;20938;-67
2022/06/02 06:08:27;;;;;;;1.77;1.37;;;16.10;97.30;;;;;;5011923;28;21011;-66
2022/06/02 06:11:11;;;;;;;2.50;1.67;;;16.10;96.40;;;;;;5011799;28;20487;-66
2022/06/02 06:14:04;;;;;;;1.70;1.20;;;16.20;95.90;;;;;;5012004;28;20470;-66
2022/06/02 06:16:39;;;;;;;2.70;1.57;;;16.40;95.30;;;;;;5011845;28;20456;-62
2022/06/02 06:19:24;;;;;;;1.73;1.30;;;16.50;95.60;;;;;;5014789;28;20463;-62
2022/06/02 06:22:07;;;;;;;1.80;1.53;;;16.60;95.00;;;;;;5014854;28;20524;-62
2022/06/02 06:25:02;;;;;;;1.33;1.30;;;16.70;94.90;;;;;;5015075;28;21045;-62
2022/06/02 06:27:34;;;;;;;1.60;1.37;;;16.80;94.20;;;;;;5015168;28;20479;-61
2022/06/02 06:30:09;;;;;;;1.40;1.30;;;16.90;94.50;;;;;;5014894;28;21017;-61
2022/06/02 06:32:41;;;;;;;1.40;1.30;;;16.80;94.30;;;;;;5014858;28;20565;-62
2022/06/02 06:35:21;;;;;;;1.70;1.40;;;16.80;94.70;;;;;;5014770;28;20965;-61
2022/06/02 06:38:03;;;;;;;1.43;1.37;;;16.90;94.80;;;;;;5013561;28;20962;-61
2022/06/02 06:40:47;;;;;;;1.30;1.13;;;17.00;94.80;;;;;;5014678;28;20470;-61
2022/06/02 06:43:29;;;;;;;1.80;1.37;;;17.20;93.20;;;;;;5013353;28;20594;-61
2022/06/02 06:46:08;;;;;;;1.90;1.40;;;17.30;93.70;;;;;;5014247;28;20463;-62
2022/06/02 06:48:38;;;;;;;2.00;1.50;;;17.30;93.70;;;;;;5014865;28;20521;-62
2022/06/02 06:51:24;;;;;;;3.10;2.13;;;17.30;92.60;;;;;;5013226;28;20997;-62
2022/06/02 06:54:02;;;;;;;1.80;1.30;;;17.40;93.70;;;;;;5243560;22;20553;-76
2022/06/02 06:56:34;;;;;;;1.93;1.40;;;17.40;93.60;;;;;;5034443;28;20855;-75
2022/06/02 06:59:13;;;;;;;1.50;1.23;;;17.50;92.20;;;;;;5034026;28;20553;-75
2022/06/02 07:01:47;;;;;;;2.47;1.60;;;17.50;91.90;;;;;;5034375;28;20550;-74
2022/06/02 07:04:31;;;;;;;2.60;1.40;;;17.60;93.10;;;;;;5034554;28;20869;-75
2022/06/02 07:07:06;;;;;;;2.50;1.80;;;17.70;92.00;;;;;;5033341;28;20455;-76
2022/06/02 07:09:45;;;;;;;1.73;1.40;;;17.60;91.60;;;;;;5033840;28;21030;-75
2022/06/02 07:15:12;;;;;;;2.50;1.60;;;17.70;93.10;;;;;;5029856;28;21014;-75
2022/06/02 07:17:46;;;;;;;1.63;1.20;;;17.80;92.50;;;;;;5034391;28;20481;-75
2022/06/02 07:20:18;;;;;;;1.83;1.50;;;17.90;91.90;;;;;;5034122;28;20469;-75
2022/06/02 07:22:59;;;;;;;1.60;1.33;;;18.10;91.80;;;;;;5033638;28;20807;-74
2022/06/02 07:25:32;;;;;;;1.30;1.20;;;18.10;91.00;;;;;;5033483;28;20469;-76
2022/06/02 07:28:06;;;;;;;1.90;1.50;;;18.10;90.30;;;;;;5029119;28;20524;-76
2022/06/02 07:30:57;;;;;;;1.50;1.40;;;18.20;91.00;;;;;;5030674;28;20824;-76
2022/06/02 07:33:44;;;;;;;1.47;1.43;;;18.30;90.70;;;;;;5030205;28;20474;-76
2022/06/02 07:36:59;;;;;;;1.83;1.50;;;18.30;87.90;;;;;;5030632;28;20451;-75
2022/06/02 07:39:59;;;;;;;1.40;1.30;;;18.60;90.80;;;;;;5030784;28;20498;-76
2022/06/02 07:42:53;;;;;;;2.20;1.67;;;18.60;88.40;;;;;;5021804;28;20467;-76
2022/06/02 07:45:36;;;;;;;2.13;1.70;;;18.70;87.00;;;;;;5030817;28;20471;-76
2022/06/02 07:48:38;;;;;;;1.40;1.30;;;18.80;88.20;;;;;;5030605;28;20971;-76
2022/06/02 07:51:17;;;;;;;1.60;1.30;;;18.90;88.40;;;;;;5024610;28;20458;-76
2022/06/02 07:54:13;;;;;;;1.30;1.30;;;18.90;87.30;;;;;;5030575;28;20466;-76
2022/06/02 07:56:50;;;;;;;2.17;1.40;;;19.00;87.90;;;;;;5030614;28;20455;-76
2022/06/02 07:59:26;;;;;;;1.97;1.60;;;19.20;87.80;;;;;;5030609;28;20548;-76
2022/06/02 08:02:23;;;;;;;1.53;1.27;;;19.20;86.40;;;;;;5030728;28;20466;-76
2022/06/02 08:05:00;;;;;;;1.93;1.60;;;19.40;86.30;;;;;;5003718;28;20459;-76
2022/06/02 08:07:36;;;;;;;1.60;1.33;;;19.50;86.50;;;;;;5030458;28;20485;-76
2022/06/02 08:10:14;;;;;;;1.80;1.50;;;19.60;87.10;;;;;;5029997;28;20549;-76
2022/06/02 08:12:49;;;;;;;1.77;1.50;;;19.80;86.30;;;;;;5030002;28;20572;-75
2022/06/02 08:15:30;;;;;;;1.77;1.40;;;19.80;85.20;;;;;;5029968;28;20544;-75
2022/06/02 08:18:02;;;;;;;1.83;1.33;;;19.90;87.00;;;;;;5030228;28;20462;-75
2022/06/02 08:20:41;;;;;;;2.33;1.70;;;20.10;86.80;;;;;;5030178;28;20534;-75
2022/06/02 08:23:15;;;;;;;2.43;1.47;;;20.10;86.00;;;;;;5029797;28;20463;-76
2022/06/02 08:25:51;;;;;;;1.30;1.30;;;20.10;85.10;;;;;;5029514;28;20548;-76
2022/06/02 08:28:47;;;;;;;1.80;1.40;;;20.10;85.20;;;;;;5029636;28;20549;-74
2022/06/02 08:31:32;;;;;;;1.83;1.50;;;20.20;85.30;;;;;;5027778;28;20455;-74
2022/06/02 08:34:08;;;;;;;1.77;1.60;;;20.30;84.60;;;;;;5029765;28;20458;-74
2022/06/02 08:36:49;;;;;;;2.67;1.70;;;20.50;84.80;;;;;;5029790;28;20517;-73
2022/06/02 08:39:41;;;;;;;1.63;1.43;;;20.50;85.00;;;;;;5021818;28;20463;-73
2022/06/02 08:42:33;;;;;;;1.53;1.40;;;20.70;83.50;;;;;;5029674;28;20520;-74
2022/06/02 08:45:39;;;;;;;2.10;1.40;;;21.00;83.80;;;;;;5029498;28;20462;-74
2022/06/02 08:48:35;;;;;;;2.53;1.60;;;21.10;83.80;;;;;;5023266;28;20971;-74
2022/06/02 08:51:52;;;;;;;2.03;1.40;;;21.20;82.20;;;;;;5027182;28;20471;-73
2022/06/02 08:55:00;;;;;;;1.80;1.60;;;21.30;82.20;;;;;;5023686;28;20477;-74
2022/06/02 08:57:58;;;;;;;1.73;1.40;;;21.30;81.20;;;;;;5022327;28;20469;-74
2022/06/02 09:00:35;;;;;;;1.53;1.47;;;21.30;82.40;;;;;;5011430;28;21151;-76
2022/06/02 09:03:35;;;;;;;1.57;1.50;;;21.50;81.80;;;;;;5017554;28;20630;-74
2022/06/02 09:06:51;;;;;;;1.90;1.63;;;21.50;80.20;;;;;;5010870;28;20464;-73
2022/06/02 09:09:53;;;;;;;1.50;1.30;;;21.60;81.30;;;;;;5012077;28;20470;-75
2022/06/02 09:13:05;;;;;;;2.60;1.53;;;21.80;81.00;;;;;;5009609;28;20482;-75
2022/06/02 09:15:56;;;;;;;2.33;1.50;;;21.90;81.80;;;;;;5012138;28;20459;-75
2022/06/02 09:19:02;;;;;;;2.80;1.80;;;22.10;81.00;;;;;;5010694;28;20471;-75
2022/06/02 09:21:40;;;;;;;2.00;1.73;;;22.20;80.50;;;;;;5016441;28;20467;-74
2022/06/02 09:24:24;;;;;;;1.57;1.43;;;22.20;77.80;;;;;;5023102;28;20466;-74
2022/06/02 09:27:20;;;;;;;1.83;1.50;;;22.20;79.80;;;;;;5030168;28;20586;-74
2022/06/02 09:29:50;;;;;;;1.60;1.50;;;22.30;78.00;;;;;;5016031;28;20952;-75
2022/06/02 09:32:41;;;;;;;1.87;1.43;;;22.50;76.20;;;;;;5031649;28;20486;-74
2022/06/02 09:35:20;;;;;;;2.80;1.83;;;22.60;77.10;;;;;;5031682;28;20477;-66
2022/06/02 09:38:27;;;;;;;2.60;1.67;;;22.80;77.40;;;;;;5021824;28;20471;-67
2022/06/02 09:41:17;;;;;;;1.60;1.50;;;22.90;76.60;;;;;;4970361;28;20469;-66
2022/06/02 09:44:05;;;;;;;1.77;1.60;;;22.90;75.80;;;;;;4970219;28;20508;-67
2022/06/02 09:47:10;;;;;;;1.60;1.50;;;23.00;76.40;;;;;;5002419;28;20459;-66
2022/06/02 09:50:13;;;;;;;2.40;1.80;;;23.10;72.80;;;;;;4994311;28;20857;-66
2022/06/02 09:53:04;;;;;;;1.73;1.40;;;23.00;76.20;;;;;;5012830;28;20493;-66
2022/06/02 09:55:40;;;;;;;2.27;1.80;;;23.30;78.80;;;;;;5015413;28;20468;-66
2022/06/02 09:58:42;;;;;;;1.90;1.63;;;23.60;75.90;;;;;;5019369;28;20462;-66
2022/06/02 10:01:45;;;;;;;1.53;1.47;;;23.70;78.10;;;;;;5032457;28;20930;-67
2022/06/02 10:04:44;;;;;;;2.80;1.80;;;23.60;72.30;;;;;;5030480;28;20477;-66
2022/06/02 10:07:40;;;;;;;2.10;1.80;;;23.50;76.30;;;;;;5031737;28;20455;-67
2022/06/02 10:10:27;;;;;;;1.70;1.60;;;23.60;72.60;;;;;;5015666;28;20472;-66
2022/06/02 10:13:16;;;;;;;3.43;1.80;;;23.60;75.50;;;;;;5014704;28;21047;-67
2022/06/02 10:16:03;;;;;;;2.03;1.60;;;23.80;79.00;;;;;;5014396;28;20459;-66
2022/06/02 10:19:00;;;;;;;2.20;1.77;;;24.10;77.80;;;;;;5018138;28;20454;-67
2022/06/02 10:21:38;;;;;;;3.00;1.80;;;24.30;77.50;;;;;;5031570;28;20462;-67
2022/06/02 10:24:32;;;;;;;2.33;1.60;;;24.50;74.20;;;;;;5034621;28;20529;-67
2022/06/02 10:27:27;;;;;;;2.30;1.63;;;24.50;74.50;;;;;;5031950;28;20523;-67
2022/06/02 10:30:30;;;;;;;1.30;1.30;;;24.60;75.00;;;;;;5034493;28;20465;-67
2022/06/02 10:33:35;;;;;;;1.97;1.73;;;24.60;73.90;;;;;;5032075;28;20481;-66
2022/06/02 10:36:37;;;;;;;2.27;1.60;;;24.60;74.80;;;;;;5010511;28;20454;-66
2022/06/02 10:39:23;;;;;;;2.00;1.60;;;24.70;74.00;;;;;;5033726;28;20508;-67
2022/06/02 10:42:03;;;;;;;2.53;1.80;;;24.90;72.60;;;;;;5014590;28;21165;-67
2022/06/02 10:45:07;;;;;;;2.17;1.60;;;24.70;75.10;;;;;;5014994;28;20966;-67
2022/06/02 10:48:11;;;;;;;2.60;1.63;;;24.90;74.70;;;;;;5014617;28;20455;-67
2022/06/02 10:51:07;;;;;;;2.70;1.90;;;25.10;71.90;;;;;;5014586;28;20463;-66
2022/06/02 10:53:54;;;;;;;1.63;1.40;;;25.20;73.20;;;;;;5014290;28;20488;-67
2022/06/02 10:56:42;;;;;;;2.03;1.83;;;25.40;73.40;;;;;;5014448;28;20459;-67
2022/06/02 10:59:41;;;;;;;2.00;1.70;;;25.40;73.10;;;;;;5014433;28;20463;-67
2022/06/02 11:02:43;;;;;;;2.20;1.90;;;25.70;72.30;;;;;;5014270;28;20521;-67
2022/06/02 11:05:52;;;;;;;2.50;1.70;;;25.80;71.60;;;;;;5007078;28;20491;-66
2022/06/02 11:09:03;;;;;;;2.13;1.80;;;25.90;69.80;;;;;;5014527;28;20463;-67
2022/06/02 11:12:07;;;;;;;3.10;1.77;;;26.10;68.10;;;;;;5014162;28;20989;-67
2022/06/02 11:15:21;;;;;;;2.17;1.60;;;26.20;66.80;;;;;;5001580;28;20456;-66
2022/06/02 11:18:21;;;;;;;4.03;1.93;;;26.30;70.70;;;;;;4995677;28;20467;-67
2022/06/02 11:21:15;;;;;;;1.70;1.40;;;26.40;68.80;;;;;;5013629;28;20957;-67
2022/06/02 11:24:17;;;;;;;2.23;1.60;;;26.70;70.40;;;;;;5013808;28;20455;-67
2022/06/02 11:27:08;;;;;;;2.30;1.80;;;26.80;69.20;;;;;;4952654;28;20463;-68
2022/06/02 11:30:12;;;;;;;2.33;1.60;;;27.00;69.50;;;;;;5013691;28;20571;-67
2022/06/02 11:33:22;;;;;;;1.80;1.70;;;27.20;69.10;;;;;;5013526;28;20490;-67
2022/06/02 11:36:29;;;;;;;2.07;1.73;;;27.40;69.80;;;;;;4950923;28;20467;-67
2022/06/02 11:39:36;;;;;;;2.30;1.67;;;27.70;70.20;;;;;;5012982;28;20513;-68
2022/06/02 11:42:18;;;;;;;4.03;2.10;;;28.00;68.40;;;;;;5024550;28;20454;-68
2022/06/02 11:45:00;;;;;;;2.03;1.70;;;28.20;69.50;;;;;;5030622;28;20470;-67
2022/06/02 11:47:56;;;;;;;2.57;1.70;;;28.40;68.20;;;;;;5031921;28;20491;-67
2022/06/02 11:51:06;;;;;;;2.00;1.63;;;28.40;67.70;;;;;;5033130;28;20458;-68
2022/06/02 11:53:54;;;;;;;3.17;2.00;;;28.30;66.80;;;;;;5033015;28;20493;-69
2022/06/02 11:56:34;;;;;;;1.70;1.70;;;28.40;67.70;;;;;;5033378;28;20801;-69
2022/06/02 11:59:32;;;;;;;1.80;1.57;;;28.60;67.70;;;;;;5033299;28;21007;-69
2022/06/02 12:02:28;;;;;;;1.97;1.67;;;28.60;64.70;;;;;;5019991;28;20465;-67
2022/06/02 12:05:26;;;;;;;3.90;1.90;;;28.60;65.80;;;;;;5032973;28;20540;-68
2022/06/02 12:08:20;;;;;;;2.40;1.90;;;28.70;68.10;;;;;;5033197;28;20459;-69
2022/06/02 12:11:22;;;;;;;2.53;2.10;;;28.50;67.80;;;;;;5033443;28;20447;-67
2022/06/02 12:14:18;;;;;;;3.20;2.40;;;28.60;67.70;;;;;;5032861;28;20569;-67
2022/06/02 12:17:15;;;;;;;2.70;1.77;;;28.60;65.80;;;;;;5032046;28;20459;-69
2022/06/02 12:20:23;;;;;;;2.43;1.90;;;28.40;65.60;;;;;;5031702;28;20498;-75
2022/06/02 12:23:08;;;;;;;1.73;1.60;;;28.30;65.30;;;;;;5032569;28;20525;-75
2022/06/02 12:26:01;;;;;;;2.43;1.80;;;28.10;67.70;;;;;;5032773;28;20481;-75
2022/06/02 12:28:57;;;;;;;3.23;1.83;;;28.40;66.80;;;;;;5033321;28;20491;-74
2022/06/02 12:31:57;;;;;;;2.07;1.90;;;28.70;68.30;;;;;;5032567;28;20467;-76
2022/06/02 12:34:42;;;;;;;1.97;1.87;;;29.00;65.90;;;;;;5029893;28;20486;-74
2022/06/02 12:37:44;;;;;;;2.07;1.63;;;29.10;65.80;;;;;;5032458;28;20463;-75
2022/06/02 12:40:27;;;;;;;2.03;1.90;;;29.00;66.00;;;;;;5032434;28;20979;-75
2022/06/02 12:43:35;;;;;;;2.20;1.60;;;28.90;66.80;;;;;;5031155;28;20862;-74
2022/06/02 12:46:28;;;;;;;2.03;1.77;;;28.80;67.30;;;;;;5032043;28;21006;-76
2022/06/02 12:49:18;;;;;;;2.10;1.90;;;28.60;67.80;;;;;;5032445;28;20465;-76
2022/06/02 12:51:59;;;;;;;2.27;1.70;;;28.50;66.50;;;;;;5032197;28;20944;-74
2022/06/02 12:55:19;;;;;;;2.87;1.90;;;28.30;66.30;;;;;;5032191;28;20490;-74
2022/06/02 12:58:21;;;;;;;2.20;1.67;;;28.20;67.40;;;;;;5032504;28;20462;-74
2022/06/02 13:01:02;;;;;;;1.83;1.80;;;28.40;67.50;;;;;;5032246;28;20924;-75
2022/06/02 13:04:02;;;;;;;3.07;2.40;;;28.50;67.90;;;;;;5032363;28;20884;-74
2022/06/02 13:07:08;;;;;;;2.10;1.67;;;28.40;68.50;;;;;;5031819;28;20473;-76
2022/06/02 13:10:14;;;;;;;2.57;1.60;;;28.60;68.20;;;;;;5032476;28;20458;-75
2022/06/02 13:13:31;;;;;;;1.80;1.77;;;28.80;66.70;;;;;;5031944;28;20463;-76
2022/06/02 13:16:32;;;;;;;2.20;2.03;;;29.00;65.70;;;;;;5030747;28;20950;-75
2022/06/02 13:19:38;;;;;;;1.57;1.53;;;29.20;66.50;;;;;;5032095;28;20488;-75
2022/06/02 13:22:45;;;;;;;1.97;1.63;;;29.00;65.40;;;;;;5031378;28;20464;-76
2022/06/02 13:25:50;;;;;;;2.43;2.07;;;29.00;65.60;;;;;;4996242;28;20466;-75
2022/06/02 13:28:55;;;;;;;3.03;1.83;;;29.00;66.40;;;;;;5025604;28;20462;-75
2022/06/02 13:32:13;;;;;;;2.57;1.90;;;28.90;65.30;;;;;;5035736;28;20462;-75
2022/06/02 13:35:17;;;;;;;1.83;1.60;;;29.10;66.70;;;;;;5035702;28;20983;-75
2022/06/02 13:38:29;;;;;;;1.93;1.80;;;29.10;64.20;;;;;;5035753;28;20549;-74
2022/06/02 13:41:22;;;;;;;2.10;1.83;;;28.90;64.50;;;;;;5035764;28;20473;-76
2022/06/02 13:44:23;;;;;;;3.30;2.10;;;28.90;65.50;;;;;;5034886;28;20463;-75
2022/06/02 13:47:20;;;;;;;3.00;2.30;;;28.90;66.60;;;;;;5034816;28;20956;-75
2022/06/02 13:50:32;;;;;;;3.10;1.97;;;28.80;68.20;;;;;;5021974;28;20462;-75
2022/06/02 13:53:34;;;;;;;2.20;1.77;;;28.40;66.30;;;;;;5034782;28;20474;-75
2022/06/02 13:59:39;;;;;;;2.03;1.70;;;28.20;69.60;;;;;;5035556;28;20468;-75
2022/06/02 14:02:33;;;;;;;2.37;1.70;;;28.00;70.20;;;;;;5035398;28;20553;-74
2022/06/02 14:05:14;;;;;;;2.60;1.87;;;27.70;69.50;;;;;;5034323;28;20824;-75
2022/06/02 14:08:15;;;;;;;3.60;2.30;;;27.70;67.80;;;;;;5035529;28;20462;-74
2022/06/02 14:11:03;;;;;;;2.53;1.87;;;27.40;68.20;;;;;;5035433;28;20454;-74
2022/06/02 14:13:56;;;;;;;2.07;1.50;;;27.60;70.00;;;;;;5034238;28;20487;-75
2022/06/02 14:16:37;;;;;;;3.40;2.00;;;27.90;67.80;;;;;;5035243;28;20501;-75
2022/06/02 14:19:32;;;;;;;2.20;1.93;;;28.00;69.80;;;;;;5033728;28;20463;-75
2022/06/02 14:22:12;;;;;;;2.10;2.00;;;28.30;68.90;;;;;;5034018;28;20466;-75
2022/06/02 14:24:49;;;;;;;1.93;1.70;;;28.70;67.50;;;;;;5034947;28;20552;-75
2022/06/02 14:27:29;;;;;;;2.53;2.13;;;29.10;66.10;;;;;;5034858;28;20458;-74
2022/06/02 14:30:06;;;;;;;2.20;1.77;;;29.50;66.10;;;;;;5034758;28;20473;-73
2022/06/02 14:32:49;;;;;;;2.13;1.73;;;30.00;66.30;;;;;;5034653;28;20462;-74
2022/06/02 14:35:36;;;;;;;2.70;1.97;;;30.20;65.10;;;;;;5034463;28;20509;-74
2022/06/02 14:38:16;;;;;;;2.40;1.90;;;30.50;67.10;;;;;;5033799;28;20868;-75
2022/06/02 14:40:48;;;;;;;2.60;2.00;;;30.70;64.30;;;;;;5034083;28;20480;-68
2022/06/02 14:43:30;;;;;;;5.30;2.20;;;30.60;64.20;;;;;;5034864;28;20210;-66